Metar z połowy godziny Komunikat METAR ze strony awiacja.imgw.pl Metar G00 EPGD METAR EPGD 271430Z 28004KT 6000 BKN006 02/01 Q0995 =